createdAt,value
2022-08-05T00:01:35.938Z,11.27
2022-08-05T00:04:16.340Z,12.57
2022-08-05T00:06:44.037Z,13.02
2022-08-05T00:09:12.893Z,14.63
2022-08-05T00:11:48.645Z,12.80
2022-08-05T00:14:17.990Z,10.20
2022-08-05T00:16:52.133Z,15.07
2022-08-05T00:19:33.087Z,16.60
2022-08-05T00:22:02.641Z,13.45
2022-08-05T00:24:31.212Z,10.05
2022-08-05T00:26:59.675Z,10.00
2022-08-05T00:29:32.962Z,12.38
2022-08-05T00:32:12.724Z,11.27
2022-08-05T00:35:05.511Z,8.93
2022-08-05T00:37:50.944Z,10.70
2022-08-05T00:40:28.325Z,15.52
2022-08-05T00:43:02.249Z,11.48
2022-08-05T00:45:43.115Z,11.07
2022-08-05T00:48:13.890Z,11.02
2022-08-05T00:50:44.394Z,9.85
2022-08-05T00:53:59.769Z,11.05
2022-08-05T00:56:04.122Z,12.13
2022-08-05T00:58:31.379Z,9.18
2022-08-05T01:00:58.699Z,11.88
2022-08-05T01:03:31.042Z,10.65
2022-08-05T01:06:01.785Z,9.07
2022-08-05T01:08:43.418Z,8.15
2022-08-05T01:11:33.420Z,8.15
2022-08-05T01:14:08.749Z,7.03
2022-08-05T01:17:05.285Z,7.03
2022-08-05T01:20:01.915Z,8.52
2022-08-05T01:23:15.230Z,9.48
2022-08-05T01:26:17.287Z,7.47
2022-08-05T01:28:51.113Z,9.50
2022-08-05T01:31:29.977Z,8.13
2022-08-05T01:34:35.870Z,9.02
2022-08-05T01:37:09.933Z,6.82
2022-08-05T01:39:58.732Z,7.22
2022-08-05T01:42:28.016Z,6.45
2022-08-05T01:45:02.322Z,8.10
2022-08-05T01:47:39.758Z,9.40
2022-08-05T01:50:28.871Z,6.82
2022-08-05T01:53:02.860Z,7.40
2022-08-05T01:55:36.120Z,7.50
2022-08-05T01:58:10.550Z,9.55
2022-08-05T02:00:45.827Z,6.88
2022-08-05T02:06:00.958Z,8.02
2022-08-05T02:08:30.724Z,7.45
2022-08-05T02:11:23.887Z,7.18
2022-08-05T02:14:17.083Z,6.80
2022-08-05T02:16:53.133Z,9.10
2022-08-05T02:19:36.536Z,9.05
2022-08-05T02:22:17.522Z,7.13
2022-08-05T02:25:02.098Z,8.27
2022-08-05T02:27:58.009Z,8.88
2022-08-05T02:30:22.436Z,8.73
2022-08-05T02:32:52.827Z,8.68
2022-08-05T02:35:27.919Z,7.63
2022-08-05T02:38:00.084Z,6.47
2022-08-05T02:40:30.534Z,9.48
2022-08-05T02:43:00.118Z,7.10
2022-08-05T02:45:51.937Z,7.43
2022-08-05T02:48:17.638Z,8.07
2022-08-05T02:50:48.450Z,7.60
2022-08-05T02:53:19.621Z,7.65
2022-08-05T02:55:59.741Z,7.47
2022-08-05T02:58:30.024Z,8.60
2022-08-05T03:01:02.037Z,6.07
2022-08-05T03:03:34.137Z,7.05
2022-08-05T03:06:53.942Z,6.43
2022-08-05T03:09:08.090Z,7.90
2022-08-05T03:11:54.470Z,6.80
2022-08-05T03:14:22.814Z,6.35
2022-08-05T03:16:53.376Z,6.28
2022-08-05T03:19:34.424Z,10.07
2022-08-05T03:22:04.669Z,7.70
2022-08-05T03:24:33.612Z,7.43
2022-08-05T03:27:02.422Z,6.15
2022-08-05T03:29:44.549Z,7.53
2022-08-05T03:32:19.597Z,6.60
2022-08-05T03:34:50.474Z,8.93
2022-08-05T03:37:21.036Z,7.70
2022-08-05T03:40:01.248Z,7.00
2022-08-05T03:42:32.940Z,10.40
2022-08-05T03:45:21.880Z,7.18
2022-08-05T03:47:51.238Z,6.72
2022-08-05T03:50:18.855Z,7.13
2022-08-05T03:55:52.989Z,7.95
2022-08-05T03:56:27.836Z,8.02
2022-08-05T03:59:01.939Z,9.05
2022-08-05T04:01:32.338Z,9.50
2022-08-05T04:04:09.707Z,8.13
2022-08-05T04:06:47.778Z,8.48
2022-08-05T04:09:26.005Z,7.95
2022-08-05T04:11:56.402Z,10.02
2022-08-05T04:14:30.024Z,8.38
2022-08-05T04:16:59.804Z,7.07
2022-08-05T04:19:28.847Z,8.88
2022-08-05T04:22:08.281Z,7.55
2022-08-05T04:24:44.333Z,11.50
2022-08-05T04:27:15.786Z,7.30
2022-08-05T04:29:43.339Z,7.22
2022-08-05T04:32:10.879Z,12.20
2022-08-05T04:34:42.679Z,10.57
2022-08-05T04:37:11.084Z,11.38
2022-08-05T04:39:39.231Z,10.00
2022-08-05T04:42:07.977Z,8.48
2022-08-05T04:44:37.886Z,12.55
2022-08-05T04:47:08.961Z,9.50
2022-08-05T04:50:02.976Z,9.75
2022-08-05T04:52:27.659Z,10.25
2022-08-05T04:54:57.353Z,9.80
2022-08-05T04:57:28.824Z,14.25
2022-08-05T05:02:36.894Z,15.40
2022-08-05T05:05:16.805Z,15.93
2022-08-05T05:07:56.394Z,9.02
2022-08-05T05:10:29.765Z,8.65
2022-08-05T05:12:57.800Z,15.90
2022-08-05T05:15:57.059Z,8.68
2022-08-05T05:18:28.447Z,9.13
2022-08-05T05:21:01.167Z,10.45
2022-08-05T05:24:02.432Z,8.25
2022-08-05T05:26:15.883Z,8.40
2022-08-05T05:28:44.838Z,10.55
2022-08-05T05:31:12.938Z,9.85
2022-08-05T05:33:59.872Z,9.55
2022-08-05T05:36:28.393Z,7.25
2022-08-05T05:38:57.399Z,9.90
2022-08-05T05:41:24.998Z,9.50
2022-08-05T05:43:57.957Z,8.52
2022-08-05T05:46:27.989Z,10.60
2022-08-05T05:48:55.220Z,9.45
2022-08-05T05:51:24.096Z,12.90
2022-08-05T05:53:58.511Z,8.38
2022-08-05T05:56:32.602Z,9.07
2022-08-05T05:59:05.361Z,9.77
2022-08-05T06:01:39.656Z,7.43
2022-08-05T06:04:12.232Z,9.55
2022-08-05T06:06:46.687Z,12.73
2022-08-05T06:09:17.077Z,11.35
2022-08-05T06:12:00.012Z,12.27
2022-08-05T06:14:31.265Z,12.65
2022-08-05T06:16:59.419Z,8.73
2022-08-05T06:19:34.854Z,11.82
2022-08-05T06:22:07.764Z,14.95
2022-08-05T06:24:41.353Z,16.27
2022-08-05T06:28:09.042Z,12.18
2022-08-05T06:30:17.683Z,12.77
2022-08-05T06:32:50.707Z,11.90
2022-08-05T06:36:03.031Z,10.77
2022-08-05T06:38:11.312Z,11.88
2022-08-05T06:40:42.119Z,8.75
2022-08-05T06:43:59.153Z,10.80
2022-08-05T06:46:06.802Z,13.13
2022-08-05T06:48:54.796Z,11.82
2022-08-05T06:51:29.522Z,55.70
2022-08-05T06:53:59.533Z,11.55
2022-08-05T06:56:28.109Z,10.07
2022-08-05T06:58:56.154Z,7.40
2022-08-05T07:01:27.700Z,9.88
2022-08-05T07:04:02.412Z,10.02
2022-08-05T07:06:30.594Z,6.00
2022-08-05T07:08:59.633Z,8.25
2022-08-05T07:11:33.197Z,8.80
2022-08-05T07:14:29.904Z,8.05
2022-08-05T07:18:08.591Z,5.35
2022-08-05T07:22:41.957Z,9.68
2022-08-05T07:25:55.315Z,11.20
2022-08-05T07:28:05.367Z,8.55
2022-08-05T07:30:38.429Z,8.85
2022-08-05T07:33:09.553Z,8.37
2022-08-05T07:36:02.248Z,5.68
2022-08-05T07:38:34.341Z,10.65
2022-08-05T07:42:06.893Z,6.85
2022-08-05T07:43:56.791Z,7.30
2022-08-05T07:46:29.597Z,8.05
2022-08-05T07:49:03.821Z,6.13
2022-08-05T07:51:37.018Z,7.15
2022-08-05T07:54:08.219Z,10.95
2022-08-05T07:56:54.782Z,9.32
2022-08-05T07:59:38.295Z,6.28
2022-08-05T08:02:15.848Z,14.13
2022-08-05T08:04:49.470Z,8.68
2022-08-05T08:07:22.450Z,6.60
2022-08-05T08:09:53.144Z,8.15
2022-08-05T08:12:33.348Z,9.27
2022-08-05T08:15:14.001Z,5.75
2022-08-05T08:17:52.635Z,9.25
2022-08-05T08:20:59.921Z,6.40
2022-08-05T08:24:02.726Z,7.35
2022-08-05T08:26:02.634Z,7.47
2022-08-05T08:28:37.058Z,7.65
2022-08-05T08:31:09.945Z,7.72
2022-08-05T08:33:42.412Z,7.40
2022-08-05T08:36:38.197Z,7.20
2022-08-05T08:38:58.659Z,6.88
2022-08-05T08:41:51.808Z,10.68
2022-08-05T08:45:23.520Z,9.25
2022-08-05T08:47:47.261Z,9.75
2022-08-05T08:50:14.650Z,8.27
2022-08-05T08:52:56.941Z,6.18
2022-08-05T08:56:02.443Z,8.02
2022-08-05T08:58:13.261Z,5.95
2022-08-05T09:00:42.502Z,8.70
2022-08-05T09:03:15.922Z,7.05
2022-08-05T09:06:07.590Z,7.53
2022-08-05T09:08:35.189Z,8.13
2022-08-05T09:11:07.916Z,7.00
2022-08-05T09:13:41.408Z,6.65
2022-08-05T09:16:26.918Z,6.93
2022-08-05T09:18:55.302Z,8.57
2022-08-05T09:22:23.110Z,12.10
2022-08-05T09:24:13.020Z,8.23
2022-08-05T09:26:46.660Z,8.70
2022-08-05T09:29:17.484Z,6.85
2022-08-05T09:32:40.126Z,8.25
2022-08-05T09:34:55.416Z,9.43
2022-08-05T09:38:12.343Z,10.45
2022-08-05T09:40:31.113Z,7.10
2022-08-05T09:43:02.261Z,6.82
2022-08-05T09:46:06.204Z,5.95
2022-08-05T09:48:30.190Z,8.88
2022-08-05T09:51:03.705Z,8.75
2022-08-05T09:53:54.884Z,8.73
2022-08-05T09:56:33.703Z,9.18
2022-08-05T09:59:24.026Z,8.63
2022-08-05T10:01:58.002Z,6.55
2022-08-05T10:04:38.567Z,8.98
2022-08-05T10:07:20.310Z,6.30
2022-08-05T10:10:14.212Z,8.07
2022-08-05T10:12:52.275Z,6.78
2022-08-05T10:15:23.624Z,9.38
2022-08-05T10:18:14.338Z,6.95
2022-08-05T10:23:55.706Z,8.05
2022-08-05T10:26:15.330Z,7.22
2022-08-05T10:28:44.460Z,7.50
2022-08-05T10:32:54.908Z,6.18
2022-08-05T10:34:08.330Z,6.63
2022-08-05T10:36:41.398Z,6.60
2022-08-05T10:39:24.834Z,10.90
2022-08-05T10:42:32.270Z,9.52
2022-08-05T10:45:03.536Z,6.90
2022-08-05T10:48:31.101Z,7.75
2022-08-05T10:50:58.069Z,8.32
2022-08-05T10:53:45.325Z,6.28
2022-08-05T10:56:25.293Z,8.93
2022-08-05T10:58:56.475Z,8.90
2022-08-05T11:02:03.791Z,5.93
2022-08-05T11:04:34.376Z,5.70
2022-08-05T11:07:06.832Z,6.63
2022-08-05T11:09:46.752Z,9.15
2022-08-05T11:12:55.243Z,6.50
2022-08-05T11:16:00.303Z,6.72
2022-08-05T11:18:32.547Z,7.18
2022-08-05T11:21:00.799Z,6.00
2022-08-05T11:24:04.963Z,8.48
2022-08-05T11:26:40.566Z,11.18
2022-08-05T11:29:38.172Z,6.15
2022-08-05T11:32:34.989Z,6.63
2022-08-05T11:35:03.270Z,5.75
2022-08-05T11:38:30.351Z,5.97
2022-08-05T11:41:15.497Z,6.00
2022-08-05T11:44:08.461Z,5.90
2022-08-05T11:47:10.244Z,4.97
2022-08-05T11:49:39.976Z,8.75
2022-08-05T11:52:11.849Z,9.40
2022-08-05T11:54:41.678Z,12.15
2022-08-05T11:57:25.832Z,5.90
2022-08-05T11:59:54.913Z,5.88
2022-08-05T12:02:36.028Z,5.53
2022-08-05T12:05:06.730Z,6.63
2022-08-05T12:08:08.263Z,7.70
2022-08-05T12:10:43.589Z,6.00
2022-08-05T12:13:28.009Z,7.75
2022-08-05T12:16:14.870Z,5.65
2022-08-05T12:18:52.299Z,7.45
2022-08-05T12:21:42.847Z,6.25
2022-08-05T12:24:14.053Z,6.93
2022-08-05T12:26:53.125Z,7.20
2022-08-05T12:29:23.557Z,12.63
2022-08-05T12:32:02.096Z,10.13
2022-08-05T12:34:32.854Z,7.60
2022-08-05T12:37:16.923Z,8.90
2022-08-05T12:39:51.320Z,8.15
2022-08-05T12:42:21.071Z,8.52
2022-08-05T12:44:53.189Z,9.45
2022-08-05T12:47:31.150Z,9.48
2022-08-05T12:50:04.403Z,8.75
2022-08-05T12:52:38.592Z,8.50
2022-08-05T12:55:22.402Z,10.48
2022-08-05T12:58:51.349Z,10.55
2022-08-05T13:02:00.765Z,9.10
2022-08-05T13:03:32.480Z,8.35
2022-08-05T13:06:01.881Z,12.27
2022-08-05T13:08:33.025Z,10.88
2022-08-05T13:11:04.242Z,9.13
2022-08-05T13:14:05.368Z,10.57
2022-08-05T13:16:20.366Z,10.45
2022-08-05T13:18:55.256Z,9.00
2022-08-05T13:21:28.255Z,11.50
2022-08-05T13:24:08.721Z,9.15
2022-08-05T13:26:36.575Z,7.97
2022-08-05T13:29:04.989Z,7.22
2022-08-05T13:32:03.249Z,10.25
2022-08-05T13:34:25.952Z,7.97
2022-08-05T13:36:54.611Z,10.55
2022-08-05T13:40:12.932Z,9.95
2022-08-05T13:42:15.020Z,13.75
2022-08-05T13:44:46.426Z,11.38
2022-08-05T13:50:04.464Z,9.23
2022-08-05T13:52:35.483Z,7.90
2022-08-05T13:55:07.788Z,8.40
2022-08-05T13:57:50.546Z,10.73
2022-08-05T14:00:27.357Z,8.02
2022-08-05T14:02:58.354Z,8.13
2022-08-05T14:05:48.304Z,9.05
2022-08-05T14:08:21.065Z,7.53
2022-08-05T14:11:03.209Z,10.77
2022-08-05T14:13:42.784Z,10.70
2022-08-05T14:16:11.300Z,6.70
2022-08-05T14:18:39.012Z,8.20
2022-08-05T14:22:07.729Z,7.18
2022-08-05T14:23:54.327Z,6.68
2022-08-05T14:26:38.439Z,8.23
2022-08-05T14:29:10.013Z,7.57
2022-08-05T14:32:03.114Z,8.45
2022-08-05T14:34:35.089Z,7.40
2022-08-05T14:37:04.810Z,10.13
2022-08-05T14:39:49.512Z,7.97
2022-08-05T14:42:22.594Z,6.68
2022-08-05T14:44:52.550Z,7.82
2022-08-05T14:47:58.541Z,8.57
2022-08-05T14:50:17.702Z,7.25
2022-08-05T14:52:53.052Z,6.43
2022-08-05T14:55:21.239Z,8.43
2022-08-05T14:57:54.268Z,6.50
2022-08-05T15:00:28.005Z,6.32
2022-08-05T15:02:55.741Z,6.72
2022-08-05T15:05:29.618Z,9.85
2022-08-05T15:08:06.095Z,9.90
2022-08-05T15:10:43.476Z,8.07
2022-08-05T15:13:13.793Z,10.85
2022-08-05T15:15:55.137Z,7.55
2022-08-05T15:18:25.171Z,6.70
2022-08-05T15:20:52.366Z,6.50
2022-08-05T15:23:20.130Z,7.45
2022-08-05T15:25:52.581Z,6.65
2022-08-05T15:28:27.017Z,7.20
2022-08-05T15:30:55.582Z,8.02
2022-08-05T15:34:18.578Z,8.55
2022-08-05T15:36:17.278Z,7.65
2022-08-05T15:41:58.099Z,6.35
2022-08-05T15:44:30.862Z,7.95
2022-08-05T15:46:59.422Z,6.38
2022-08-05T15:49:48.048Z,5.93
2022-08-05T15:52:17.002Z,10.18
2022-08-05T15:55:02.053Z,5.63
2022-08-05T15:57:33.015Z,6.22
2022-08-05T16:00:03.566Z,6.63
2022-08-05T16:02:32.274Z,5.50
2022-08-05T16:05:00.021Z,7.85
2022-08-05T16:07:29.417Z,4.90
2022-08-05T16:09:57.178Z,5.45
2022-08-05T16:12:24.546Z,6.22
2022-08-05T16:14:52.113Z,8.07
2022-08-05T16:17:19.465Z,6.00
2022-08-05T16:20:05.972Z,5.78
2022-08-05T16:22:34.725Z,6.47
2022-08-05T16:25:07.987Z,9.13
2022-08-05T16:27:59.910Z,7.10
2022-08-05T16:30:26.106Z,6.25
2022-08-05T16:32:54.396Z,8.13
2022-08-05T16:35:27.921Z,13.05
2022-08-05T16:38:15.678Z,8.38
2022-08-05T16:40:48.093Z,6.80
2022-08-05T16:43:24.033Z,10.15
2022-08-05T16:46:05.868Z,5.93
2022-08-05T16:48:40.317Z,6.93
2022-08-05T16:51:09.311Z,10.27
2022-08-05T16:54:06.049Z,11.53
2022-08-05T16:56:29.461Z,6.78
2022-08-05T16:58:57.896Z,5.97
2022-08-05T17:01:25.297Z,6.05
2022-08-05T17:03:52.811Z,5.90
2022-08-05T17:06:20.665Z,5.18
2022-08-05T17:08:54.392Z,5.85
2022-08-05T17:11:25.728Z,7.47
2022-08-05T17:14:00.469Z,6.32
2022-08-05T17:16:38.241Z,6.87
2022-08-05T17:19:09.450Z,4.90
2022-08-05T17:21:39.414Z,5.93
2022-08-05T17:24:18.675Z,6.10
2022-08-05T17:26:58.583Z,7.57
2022-08-05T17:29:33.854Z,5.63
2022-08-05T17:32:11.159Z,6.78
2022-08-05T17:37:32.191Z,7.72
2022-08-05T17:40:00.059Z,7.65
2022-08-05T17:42:31.940Z,7.32
2022-08-05T17:45:09.823Z,8.80
2022-08-05T17:47:47.001Z,6.05
2022-08-05T17:50:27.643Z,5.75
2022-08-05T17:52:59.102Z,7.05
2022-08-05T17:55:34.606Z,5.78
2022-08-05T17:58:09.560Z,7.07
2022-08-05T18:00:44.990Z,6.05
2022-08-05T18:03:39.344Z,9.50
2022-08-05T18:06:11.165Z,6.20
2022-08-05T18:08:44.779Z,8.43
2022-08-05T18:11:24.113Z,5.95
2022-08-05T18:14:01.420Z,7.38
2022-08-05T18:16:31.636Z,17.05
2022-08-05T18:18:58.894Z,8.32
2022-08-05T18:21:28.064Z,7.22
2022-08-05T18:24:14.379Z,13.50
2022-08-05T18:26:42.038Z,9.70
2022-08-05T18:29:11.179Z,9.05
2022-08-05T18:31:42.990Z,7.90
2022-08-05T18:34:11.980Z,9.98
2022-08-05T18:36:41.123Z,12.85
2022-08-05T18:39:22.366Z,17.08
2022-08-05T18:42:03.745Z,11.95
2022-08-05T18:44:51.444Z,70.70
2022-08-05T18:47:22.945Z,37.70
2022-08-05T18:50:13.148Z,14.68
2022-08-05T18:52:50.840Z,19.77
2022-08-05T18:55:21.692Z,12.02
2022-08-05T18:57:53.981Z,10.60
2022-08-05T19:00:28.817Z,10.27
2022-08-05T19:03:03.287Z,9.27
2022-08-05T19:06:11.606Z,9.18
2022-08-05T19:08:30.686Z,9.02
2022-08-05T19:10:59.750Z,9.48
2022-08-05T19:13:36.150Z,10.00
2022-08-05T19:16:05.322Z,9.70
2022-08-05T19:18:53.394Z,7.95
2022-08-05T19:21:23.954Z,10.27
2022-08-05T19:24:07.164Z,7.72
2022-08-05T19:26:36.785Z,7.82
2022-08-05T19:29:23.945Z,9.23
2022-08-05T19:31:57.346Z,9.60
2022-08-05T19:34:25.106Z,11.90
2022-08-05T19:36:52.755Z,7.43
2022-08-05T19:39:20.134Z,8.05
2022-08-05T19:42:06.399Z,6.53
2022-08-05T19:44:40.226Z,8.05
2022-08-05T19:47:16.048Z,8.27
2022-08-05T19:49:45.223Z,7.30
2022-08-05T19:52:30.865Z,7.95
2022-08-05T19:55:06.941Z,9.52
2022-08-05T19:58:19.515Z,6.78
2022-08-05T20:00:36.565Z,6.43
2022-08-05T20:03:08.749Z,8.05
2022-08-05T20:05:50.243Z,6.70
2022-08-05T20:08:19.993Z,7.30
2022-08-05T20:10:49.556Z,7.88
2022-08-05T20:13:18.277Z,31.95
2022-08-05T20:15:57.651Z,8.98
2022-08-05T20:18:33.552Z,9.27
2022-08-05T20:21:06.557Z,7.88
2022-08-05T20:23:51.393Z,7.83
2022-08-05T20:26:23.435Z,8.70
2022-08-05T20:28:55.804Z,8.15
2022-08-05T20:31:37.281Z,7.38
2022-08-05T20:34:13.196Z,15.82
2022-08-05T20:36:43.499Z,18.65
2022-08-05T20:39:13.238Z,8.83
2022-08-05T20:41:44.628Z,11.30
2022-08-05T20:44:18.455Z,17.73
2022-08-05T20:46:59.223Z,28.95
2022-08-05T20:49:27.485Z,20.73
2022-08-05T20:51:57.339Z,8.43
2022-08-05T20:54:42.847Z,10.55
2022-08-05T20:57:42.715Z,26.05
2022-08-05T21:00:20.532Z,26.92
2022-08-05T21:02:57.043Z,26.45
2022-08-05T21:05:25.336Z,34.58
2022-08-05T21:08:05.590Z,18.42
2022-08-05T21:10:33.629Z,14.35
2022-08-05T21:13:11.117Z,73.93
2022-08-05T21:15:44.468Z,80.25
2022-08-05T21:18:18.213Z,75.57
2022-08-05T21:20:45.517Z,32.22
2022-08-05T21:23:14.170Z,37.92
2022-08-05T21:25:44.969Z,30.00
2022-08-05T21:28:12.297Z,41.33
2022-08-05T21:30:45.868Z,31.77
2022-08-05T21:33:21.991Z,30.88
2022-08-05T21:35:58.748Z,29.60
2022-08-05T21:38:27.965Z,28.52
2022-08-05T21:40:55.255Z,20.05
2022-08-05T21:43:24.794Z,30.30
2022-08-05T21:45:56.490Z,17.42
2022-08-05T21:48:25.010Z,24.27
2022-08-05T21:50:54.370Z,22.92
2022-08-05T21:53:27.268Z,21.15
2022-08-05T21:56:06.316Z,23.50
2022-08-05T21:58:56.964Z,20.88
2022-08-05T22:01:26.116Z,18.95
2022-08-05T22:03:53.911Z,16.33
2022-08-05T22:06:22.743Z,15.10
2022-08-05T22:08:52.206Z,14.68
2022-08-05T22:11:35.452Z,22.15
2022-08-05T22:14:18.238Z,20.73
2022-08-05T22:16:56.804Z,45.72
2022-08-05T22:20:03.424Z,13.10
2022-08-05T22:22:15.629Z,14.60
2022-08-05T22:25:01.974Z,16.17
2022-08-05T22:28:08.771Z,16.75
2022-08-05T22:30:35.815Z,21.70
2022-08-05T22:33:15.459Z,17.92
2022-08-05T22:35:48.575Z,16.02
2022-08-05T22:38:19.000Z,13.45
2022-08-05T22:40:49.392Z,13.57
2022-08-05T22:43:37.015Z,12.38
2022-08-05T22:46:12.082Z,11.35
2022-08-05T22:48:42.147Z,10.93
2022-08-05T22:51:22.369Z,10.27
2022-08-05T22:53:51.954Z,7.82
2022-08-05T22:56:30.570Z,7.95
2022-08-05T22:59:03.264Z,9.60
2022-08-05T23:02:05.190Z,7.28
2022-08-05T23:04:34.469Z,8.52
2022-08-05T23:07:02.446Z,12.38
2022-08-05T23:09:57.758Z,9.70
2022-08-05T23:12:18.464Z,10.32
2022-08-05T23:14:51.518Z,7.85
2022-08-05T23:17:34.698Z,8.23
2022-08-05T23:20:16.326Z,8.10
2022-08-05T23:22:47.800Z,6.80
2022-08-05T23:25:51.215Z,7.40
2022-08-05T23:28:07.231Z,32.30
2022-08-05T23:30:40.633Z,12.95
2022-08-05T23:33:16.015Z,15.07
2022-08-05T23:35:50.289Z,8.90
2022-08-05T23:38:18.043Z,8.85
2022-08-05T23:40:49.995Z,6.38
2022-08-05T23:43:25.472Z,7.53
2022-08-05T23:46:19.855Z,6.95
2022-08-05T23:49:00.236Z,6.80
2022-08-05T23:51:55.401Z,8.55
2022-08-05T23:54:33.943Z,6.47
2022-08-05T23:57:04.819Z,7.22
